Time;durP1;ratioP1;P1;durP2;ratioP2;P2;SDS_P1;SDS_P2;PMS_P1;PMS_P2;Temp;Humidity;BMP_temperature;BMP_pressure;BME280_temperature;BME280_humidity;BME280_pressure;Samples;Min_cycle;Max_cycle;Signal;HPM_P1;HPM_P2
2022/06/16 00:01:44;;;;;;;7.28;3.80;;;;;;;19.23;76.34;96048.53;5079155;28;20124;-67
2022/06/16 00:04:10;;;;;;;4.88;3.10;;;;;;;19.25;75.58;96049.19;5083275;28;20467;-67
2022/06/16 00:06:35;;;;;;;9.35;3.78;;;;;;;19.23;74.78;96045.88;5077587;28;20040;-67
2022/06/16 00:09:01;;;;;;;7.20;3.83;;;;;;;19.17;75.12;96047.44;5078766;28;20467;-67
2022/06/16 00:11:26;;;;;;;11.00;4.30;;;;;;;19.13;76.04;96047.03;5083463;28;20032;-68
2022/06/16 00:13:52;;;;;;;10.32;4.05;;;;;;;19.11;75.48;96053.53;5075990;28;20048;-67
2022/06/16 00:16:19;;;;;;;9.32;4.53;;;;;;;19.09;75.94;96044.91;5077987;28;20028;-67
2022/06/16 00:18:44;;;;;;;7.18;3.40;;;;;;;19.07;75.64;96050.41;5083177;28;20472;-68
2022/06/16 00:21:11;;;;;;;6.72;3.70;;;;;;;19.01;75.81;96052.00;5082088;28;20023;-67
2022/06/16 00:23:38;;;;;;;5.28;3.13;;;;;;;19.00;75.05;96047.66;5089113;28;20040;-67
2022/06/16 00:26:03;;;;;;;7.57;3.50;;;;;;;18.98;74.62;96049.69;5082367;28;20062;-67
2022/06/16 00:28:29;;;;;;;9.15;3.40;;;;;;;18.93;74.31;96046.72;5082191;28;20468;-68
2022/06/16 00:31:03;;;;;;;7.90;3.90;;;;;;;18.90;74.18;96047.09;5087627;28;20065;-68
2022/06/16 00:33:29;;;;;;;7.68;3.30;;;;;;;18.85;75.29;96041.50;5089658;28;20020;-68
2022/06/16 00:35:54;;;;;;;6.55;3.53;;;;;;;18.85;74.73;96042.31;5079641;28;20403;-67
2022/06/16 00:38:20;;;;;;;8.07;3.20;;;;;;;18.89;73.78;96040.13;5079487;28;20025;-67
2022/06/16 00:40:45;;;;;;;8.68;3.53;;;;;;;18.90;73.28;96036.44;5087236;28;20025;-68
2022/06/16 00:43:11;;;;;;;7.70;3.15;;;;;;;18.96;73.32;96033.00;5080308;28;20028;-68
2022/06/16 00:45:45;;;;;;;5.07;3.40;;;;;;;18.90;74.56;96034.59;5081831;28;20092;-67
2022/06/16 00:48:38;;;;;;;8.10;3.60;;;;;;;18.82;75.11;96034.69;5076546;28;20078;-67
2022/06/16 00:51:06;;;;;;;4.78;3.25;;;;;;;18.75;75.06;96036.44;5082078;28;20270;-67
2022/06/16 00:53:33;;;;;;;11.50;3.50;;;;;;;18.75;74.36;96034.59;5077826;28;20028;-67
2022/06/16 00:55:59;;;;;;;7.45;3.80;;;;;;;18.66;75.87;96034.88;5078671;28;20064;-67
2022/06/16 00:58:27;;;;;;;7.13;3.35;;;;;;;18.66;74.70;96035.72;5084855;28;20105;-68
2022/06/16 01:00:53;;;;;;;12.27;3.40;;;;;;;18.71;74.01;96038.66;5072464;28;20020;-67
2022/06/16 01:06:17;;;;;;;7.10;3.73;;;;;;;18.65;75.19;96028.72;5076072;28;20031;-68
2022/06/16 01:08:44;;;;;;;8.90;3.78;;;;;;;18.63;75.07;96029.91;5081687;28;20104;-68
2022/06/16 01:13:41;;;;;;;5.32;3.70;;;;;;;18.64;74.54;96028.91;5085574;28;20027;-67
2022/06/16 01:14:15;;;;;;;5.55;3.50;;;;;;;18.57;74.45;96028.84;5076564;28;20467;-68
2022/06/16 01:16:45;;;;;;;7.22;3.17;;;;;;;18.51;74.66;96033.06;5074297;28;20029;-67
2022/06/16 01:19:45;;;;;;;11.00;4.13;;;;;;;18.50;74.66;96036.72;5080982;28;20036;-68
2022/06/16 01:22:20;;;;;;;6.25;3.53;;;;;;;18.45;74.67;96034.59;5081614;28;20024;-67
2022/06/16 01:25:06;;;;;;;7.13;3.35;;;;;;;18.32;76.09;96026.41;5079630;28;20134;-67
2022/06/16 01:28:03;;;;;;;5.28;3.15;;;;;;;18.24;76.34;96024.69;5083253;28;20032;-67
2022/06/16 01:30:42;;;;;;;7.05;3.30;;;;;;;18.20;76.14;96015.38;5082274;28;20024;-67
2022/06/16 01:33:35;;;;;;;11.43;3.60;;;;;;;18.18;78.04;96012.06;5087075;28;20020;-67
2022/06/16 01:36:09;;;;;;;11.35;3.38;;;;;;;18.08;76.41;96006.19;5086656;28;20020;-67
2022/06/16 01:38:43;;;;;;;6.15;2.70;;;;;;;18.04;75.96;96003.88;5077990;28;20085;-66
2022/06/16 01:41:28;;;;;;;5.20;3.60;;;;;;;18.11;76.24;96000.50;5057110;28;20024;-67
2022/06/16 01:44:23;;;;;;;7.05;3.38;;;;;;;18.08;76.91;96009.66;5074550;28;20064;-67
2022/06/16 01:46:56;;;;;;;7.73;3.47;;;;;;;18.00;76.54;95999.06;5080513;28;20628;-67
2022/06/16 01:49:27;;;;;;;7.95;4.07;;;;;;;17.92;77.31;96012.47;5089481;28;20024;-68
2022/06/16 01:52:00;;;;;;;8.45;3.70;;;;;;;17.82;77.00;96002.06;5084128;28;20507;-67
2022/06/16 01:54:35;;;;;;;12.05;4.07;;;;;;;17.76;76.78;96004.41;5083759;28;20016;-67
2022/06/16 01:57:10;;;;;;;6.32;3.90;;;;;;;17.73;76.57;96003.97;5072965;28;20036;-67
2022/06/16 02:00:00;;;;;;;6.63;3.55;;;;;;;17.65;77.28;95999.53;5079253;28;20028;-67
2022/06/16 02:02:30;;;;;;;10.48;3.63;;;;;;;17.63;77.05;95996.22;5073937;28;20024;-67
2022/06/16 02:05:07;;;;;;;11.80;3.70;;;;;;;17.62;78.23;95999.91;5079591;28;20035;-68
2022/06/16 02:07:38;;;;;;;9.70;3.50;;;;;;;17.61;78.05;96000.91;5083108;28;20090;-68
2022/06/16 02:10:18;;;;;;;5.13;3.50;;;;;;;17.55;78.55;96002.44;5090044;28;20107;-67
2022/06/16 02:12:56;;;;;;;8.32;3.90;;;;;;;17.56;78.85;96011.22;5081670;28;20031;-67
2022/06/16 02:15:59;;;;;;;10.13;4.60;;;;;;;17.52;78.69;96010.78;5062372;28;20071;-68
2022/06/16 02:18:28;;;;;;;9.30;3.88;;;;;;;17.53;78.11;96015.09;5078713;28;20500;-67
2022/06/16 02:21:22;;;;;;;9.15;3.65;;;;;;;17.52;80.52;96016.09;5075582;28;20020;-68
2022/06/16 02:23:47;;;;;;;12.02;3.50;;;;;;;17.49;79.15;96023.59;5071396;28;20186;-67
2022/06/16 02:26:14;;;;;;;5.28;3.20;;;;;;;17.42;78.38;96024.31;5080839;28;20449;-67
2022/06/16 02:28:47;;;;;;;8.82;3.67;;;;;;;17.43;78.42;96031.31;5082747;28;20020;-67
2022/06/16 02:31:21;;;;;;;10.13;3.90;;;;;;;17.42;78.32;96031.47;5083441;28;20035;-68
2022/06/16 02:33:58;;;;;;;5.85;3.35;;;;;;;17.38;78.95;96028.34;5071371;28;20506;-67
2022/06/16 02:36:48;;;;;;;5.70;3.33;;;;;;;17.40;80.23;96014.84;5078625;28;20095;-67
2022/06/16 02:39:43;;;;;;;6.10;3.58;;;;;;;17.33;78.91;96022.69;5083280;28;20363;-67
2022/06/16 02:42:30;;;;;;;10.68;3.67;;;;;;;17.29;78.80;96019.59;5082376;28;20095;-67
2022/06/16 02:45:23;;;;;;;6.15;3.60;;;;;;;17.23;78.92;96020.28;5072045;28;20507;-67
2022/06/16 02:48:33;;;;;;;7.22;3.47;;;;;;;17.15;79.59;96023.84;5045306;28;20495;-67
2022/06/16 02:51:16;;;;;;;10.52;3.40;;;;;;;17.11;79.94;96027.00;5059542;28;20036;-68
2022/06/16 02:56:28;;;;;;;6.25;3.53;;;;;;;17.02;80.55;96016.44;5084592;28;20028;-67
2022/06/16 02:59:00;;;;;;;9.13;3.53;;;;;;;17.00;80.69;96015.75;5078496;28;20106;-67
2022/06/16 03:01:26;;;;;;;7.72;3.72;;;;;;;17.02;80.13;96013.75;5084407;28;20075;-67
2022/06/16 03:04:14;;;;;;;7.95;3.67;;;;;;;17.03;79.61;96026.06;5082222;28;20036;-68
2022/06/16 03:06:40;;;;;;;9.63;4.35;;;;;;;17.02;79.66;96023.56;5079720;28;20020;-67
2022/06/16 03:09:06;;;;;;;7.28;3.88;;;;;;;17.01;80.12;96032.53;5084046;28;20016;-68
2022/06/16 03:11:33;;;;;;;7.88;4.78;;;;;;;16.98;80.66;96031.03;5081731;28;20035;-67
2022/06/16 03:13:59;;;;;;;7.88;4.45;;;;;;;16.98;80.36;96033.72;5087612;28;20075;-67
2022/06/16 03:16:24;;;;;;;9.13;3.83;;;;;;;17.02;79.92;96034.19;5081876;28;20060;-68
2022/06/16 03:18:50;;;;;;;10.05;3.67;;;;;;;17.09;79.64;96042.31;5085691;28;20028;-68
2022/06/16 03:21:16;;;;;;;5.80;3.47;;;;;;;17.08;79.08;96044.13;5078361;28;20028;-67
2022/06/16 03:23:41;;;;;;;7.15;3.58;;;;;;;17.04;79.71;96045.50;5073255;28;20045;-67
2022/06/16 03:26:06;;;;;;;6.75;3.58;;;;;;;17.05;79.18;96049.81;5087364;28;20391;-67
2022/06/16 03:28:32;;;;;;;12.30;3.90;;;;;;;17.01;79.63;96046.66;5080472;28;20032;-67
2022/06/16 03:30:57;;;;;;;3.60;2.97;;;;;;;17.00;80.64;96052.16;5076659;28;20024;-68
2022/06/16 03:33:23;;;;;;;9.35;6.25;;;;;;;16.96;79.78;96051.63;5087141;28;20116;-67
2022/06/16 03:35:48;;;;;;;7.38;3.97;;;;;;;16.97;79.86;96058.63;5075699;28;20139;-67
2022/06/16 03:40:50;;;;;;;6.85;3.88;;;;;;;16.97;80.02;96055.94;5082428;28;20557;-67
2022/06/16 03:43:15;;;;;;;5.35;3.80;;;;;;;16.95;79.55;96065.13;5089223;28;20028;-67
2022/06/16 03:45:41;;;;;;;8.02;3.38;;;;;;;16.93;79.44;96056.50;5074877;28;20040;-67
2022/06/16 03:48:07;;;;;;;13.45;3.72;;;;;;;16.93;79.84;96062.63;5079889;28;20028;-67
2022/06/16 03:50:32;;;;;;;8.57;2.97;;;;;;;16.90;79.55;96063.78;5084001;28;20031;-67
2022/06/16 03:52:58;;;;;;;6.75;3.15;;;;;;;16.91;80.30;96069.94;5081616;28;20535;-67
2022/06/16 03:55:24;;;;;;;6.03;3.40;;;;;;;16.87;80.59;96073.97;5078050;28;20024;-67
2022/06/16 03:57:50;;;;;;;9.45;3.55;;;;;;;16.80;80.49;96070.31;5085684;28;20081;-66
2022/06/16 04:00:17;;;;;;;7.80;3.65;;;;;;;16.79;80.29;96066.84;5083816;28;20417;-67
2022/06/16 04:02:42;;;;;;;14.13;3.65;;;;;;;16.80;80.33;96072.97;5086982;28;20096;-68
2022/06/16 04:05:08;;;;;;;11.80;3.80;;;;;;;16.72;80.98;96073.84;5085217;28;20483;-67
2022/06/16 04:07:35;;;;;;;10.60;3.42;;;;;;;16.67;81.27;96068.19;5080152;28;20021;-67
2022/06/16 04:10:03;;;;;;;7.85;3.28;;;;;;;16.67;80.86;96076.16;5075879;28;20036;-67
2022/06/16 04:12:28;;;;;;;3.63;3.25;;;;;;;16.66;81.39;96066.53;5086882;28;20107;-67
2022/06/16 04:14:54;;;;;;;11.68;4.22;;;;;;;16.69;81.76;96068.84;5081742;28;20107;-67
2022/06/16 04:17:20;;;;;;;6.13;3.42;;;;;;;16.65;81.78;96073.69;5082733;28;20509;-67
2022/06/16 04:22:29;;;;;;;7.30;3.50;;;;;;;16.71;81.41;96074.84;5083066;28;20139;-67
2022/06/16 04:24:54;;;;;;;9.35;5.22;;;;;;;16.65;82.52;96079.03;5061357;28;20111;-67
2022/06/16 04:27:19;;;;;;;7.93;4.45;;;;;;;16.66;81.45;96072.69;5087781;28;20495;-67
2022/06/16 04:29:45;;;;;;;10.48;4.40;;;;;;;16.71;81.06;96075.66;5077293;28;20105;-67
2022/06/16 04:32:10;;;;;;;7.13;3.90;;;;;;;16.75;81.40;96081.47;5090728;28;20398;-68
2022/06/16 04:34:37;;;;;;;7.30;3.47;;;;;;;16.76;81.63;96080.47;5091995;28;20103;-69
2022/06/16 04:37:03;;;;;;;9.32;3.55;;;;;;;16.85;80.68;96087.41;5092346;28;20027;-67
2022/06/16 04:39:28;;;;;;;8.10;3.72;;;;;;;16.91;80.37;96093.88;5091833;28;20368;-67
2022/06/16 04:41:53;;;;;;;4.40;3.30;;;;;;;16.94;80.46;96095.38;5091781;28;20777;-68
2022/06/16 04:44:19;;;;;;;15.32;3.70;;;;;;;16.93;79.73;96083.91;5091581;28;20145;-67
2022/06/16 04:46:44;;;;;;;9.57;3.90;;;;;;;16.91;80.23;96093.88;5091470;28;20056;-67
2022/06/16 04:49:11;;;;;;;7.53;3.60;;;;;;;16.90;81.06;96085.06;5073460;28;20110;-67
2022/06/16 04:51:37;;;;;;;8.43;3.80;;;;;;;16.93;81.76;96094.53;5091568;28;20116;-67
2022/06/16 04:54:02;;;;;;;9.07;3.95;;;;;;;16.98;82.13;96102.00;5091938;28;20099;-68
2022/06/16 04:56:28;;;;;;;15.88;5.00;;;;;;;17.03;82.08;96099.69;5073414;28;20029;-67
2022/06/16 04:58:53;;;;;;;6.15;3.92;;;;;;;17.11;80.89;96101.50;5091510;28;20413;-68
2022/06/16 05:01:18;;;;;;;10.02;4.03;;;;;;;17.07;81.61;96101.00;5091612;28;20020;-67
2022/06/16 05:03:44;;;;;;;8.70;3.83;;;;;;;17.00;81.33;96108.00;5082650;28;20024;-67
2022/06/16 05:06:09;;;;;;;10.45;4.10;;;;;;;16.90;82.69;96103.69;5091512;28;20430;-67
2022/06/16 05:08:34;;;;;;;7.90;3.70;;;;;;;16.96;82.14;96112.81;5091743;28;20051;-67
2022/06/16 05:11:00;;;;;;;6.55;3.72;;;;;;;17.07;81.18;96111.63;5090911;28;20034;-67
2022/06/16 05:13:25;;;;;;;9.32;3.38;;;;;;;17.15;80.37;96118.75;5091140;28;20089;-67
2022/06/16 05:15:54;;;;;;;8.68;3.75;;;;;;;17.27;79.90;96130.69;5091113;28;20032;-68
2022/06/16 05:18:19;;;;;;;8.38;3.70;;;;;;;17.40;79.76;96131.94;5091022;28;20047;-67
2022/06/16 05:20:45;;;;;;;13.60;3.80;;;;;;;17.49;79.25;96130.06;5087236;28;20475;-67
2022/06/16 05:23:11;;;;;;;7.13;3.67;;;;;;;17.65;78.52;96127.31;5090688;28;20236;-68
2022/06/16 05:25:37;;;;;;;9.23;3.30;;;;;;;17.82;78.66;96138.69;5087183;28;20475;-68
2022/06/16 05:28:05;;;;;;;7.38;3.50;;;;;;;17.88;78.50;96140.63;5090038;28;20016;-68
2022/06/16 05:30:30;;;;;;;8.30;3.88;;;;;;;17.99;77.53;96146.56;5090863;28;20118;-68
2022/06/16 05:32:55;;;;;;;6.53;3.50;;;;;;;18.16;76.96;96142.81;5089514;28;20091;-68
2022/06/16 05:35:21;;;;;;;6.65;3.78;;;;;;;18.31;77.02;96140.19;5090606;28;20394;-67
2022/06/16 05:37:46;;;;;;;7.90;3.85;;;;;;;18.45;76.46;96151.06;5090233;28;20081;-67
2022/06/16 05:40:12;;;;;;;7.13;4.70;;;;;;;18.61;75.13;96148.25;5090472;28;20091;-68
2022/06/16 05:42:37;;;;;;;11.18;4.70;;;;;;;18.79;73.90;96151.56;5091221;28;20032;-68
2022/06/16 05:45:03;;;;;;;6.55;3.63;;;;;;;18.98;73.70;96142.22;5090518;28;20553;-67
2022/06/16 05:47:28;;;;;;;7.43;3.67;;;;;;;19.08;72.90;96140.13;5090482;28;20028;-67
2022/06/16 05:49:54;;;;;;;8.10;3.58;;;;;;;19.17;73.02;96139.03;5090702;28;20024;-68
2022/06/16 05:52:21;;;;;;;8.98;4.03;;;;;;;19.26;73.59;96137.09;5088861;28;20020;-68
2022/06/16 05:54:47;;;;;;;8.88;3.92;;;;;;;19.37;73.01;96143.78;5080409;28;20021;-68
2022/06/16 05:57:13;;;;;;;6.10;3.38;;;;;;;19.50;71.84;96137.78;5087430;28;20027;-68
2022/06/16 05:59:39;;;;;;;12.25;3.95;;;;;;;19.67;71.09;96138.38;5081257;28;20035;-67
2022/06/16 06:02:13;;;;;;;9.88;3.70;;;;;;;19.82;69.55;96142.84;5089801;28;20028;-68
2022/06/16 06:04:38;;;;;;;7.13;3.80;;;;;;;19.86;70.34;96144.13;5089212;28;20016;-67
2022/06/16 06:07:04;;;;;;;8.45;4.22;;;;;;;19.95;69.68;96145.69;5090311;28;20031;-67
2022/06/16 06:17:46;;;;;;;5.70;3.22;;;;;;;20.74;66.04;96148.41;5090027;28;20509;-70
2022/06/16 06:20:12;;;;;;;9.07;3.83;;;;;;;21.00;64.94;96147.81;5089936;28;20103;-67
2022/06/16 06:22:37;;;;;;;4.65;3.22;;;;;;;21.22;65.36;96154.91;5087691;28;20035;-69
2022/06/16 06:25:03;;;;;;;9.23;3.45;;;;;;;21.46;65.52;96146.38;5090047;28;20020;-68
2022/06/16 06:27:33;;;;;;;7.45;3.92;;;;;;;21.79;64.74;96142.19;5089321;28;20031;-68
2022/06/16 06:30:00;;;;;;;13.10;3.67;;;;;;;22.08;63.47;96142.06;5087397;28;20081;-67
2022/06/16 06:32:26;;;;;;;7.75;3.38;;;;;;;22.28;60.73;96142.91;5086968;28;20394;-70
2022/06/16 06:34:52;;;;;;;3.83;3.00;;;;;;;22.46;59.60;96144.16;5085157;28;20063;-69
2022/06/16 06:37:21;;;;;;;10.38;3.50;;;;;;;22.86;58.47;96138.75;5075278;28;20081;-70
2022/06/16 06:39:48;;;;;;;7.47;3.35;;;;;;;23.14;59.68;96137.69;5072241;28;20063;-69
2022/06/16 06:42:13;;;;;;;10.07;3.40;;;;;;;23.16;58.87;96127.56;5072202;28;20028;-69
2022/06/16 06:44:38;;;;;;;5.38;3.78;;;;;;;23.43;58.92;96126.66;5072906;28;20032;-69
2022/06/16 06:47:04;;;;;;;7.65;3.17;;;;;;;23.66;57.88;96128.03;5085540;28;20483;-69
2022/06/16 06:49:30;;;;;;;9.27;3.70;;;;;;;23.81;56.45;96125.88;5075184;28;20111;-69
2022/06/16 06:51:55;;;;;;;6.20;3.22;;;;;;;23.99;55.62;96124.31;5089711;28;20024;-70
2022/06/16 06:54:21;;;;;;;9.20;3.40;;;;;;;24.37;53.61;96118.09;5089477;28;20085;-69
2022/06/16 06:56:48;;;;;;;7.88;3.55;;;;;;;24.86;53.19;96123.66;5089278;28;20137;-70
2022/06/16 06:59:18;;;;;;;13.88;3.78;;;;;;;24.94;52.80;96124.44;5083372;28;20108;-69
2022/06/16 07:01:44;;;;;;;5.57;3.00;;;;;;;24.95;51.50;96126.09;5083347;28;20107;-67
2022/06/16 07:04:10;;;;;;;13.18;3.45;;;;;;;25.22;52.11;96115.84;5084814;28;20653;-70
2022/06/16 07:06:37;;;;;;;6.38;3.25;;;;;;;25.54;51.32;96118.41;5089690;28;20052;-68
2022/06/16 07:09:02;;;;;;;9.73;3.50;;;;;;;25.65;49.96;96119.50;5088136;28;20479;-66
2022/06/16 07:11:28;;;;;;;10.43;3.20;;;;;;;25.89;50.18;96106.09;5089279;28;20024;-66
2022/06/16 07:13:53;;;;;;;7.28;3.05;;;;;;;26.19;48.31;96105.28;5089631;28;20126;-66
2022/06/16 07:16:20;;;;;;;8.70;3.75;;;;;;;26.34;48.73;96110.25;5089439;28;20526;-68
2022/06/16 07:18:45;;;;;;;7.60;3.38;;;;;;;26.50;49.33;96114.13;5086740;28;20027;-69
2022/06/16 07:21:11;;;;;;;9.65;3.70;;;;;;;26.69;48.04;96114.03;5079354;28;20472;-67
2022/06/16 07:23:37;;;;;;;7.75;3.03;;;;;;;26.85;47.12;96107.94;5089014;28;20090;-66
2022/06/16 07:26:03;;;;;;;7.18;3.03;;;;;;;27.17;46.97;96114.84;5083863;28;20079;-67
2022/06/16 07:28:29;;;;;;;7.15;2.90;;;;;;;27.58;44.55;96114.91;5078644;28;20507;-67
2022/06/16 07:30:54;;;;;;;7.88;3.30;;;;;;;28.01;44.69;96104.59;5071531;28;20033;-67
2022/06/16 07:33:20;;;;;;;7.60;3.13;;;;;;;28.28;44.17;96112.94;5079776;28;20028;-67
2022/06/16 07:35:45;;;;;;;8.88;3.22;;;;;;;28.10;44.42;96113.16;5082909;28;20040;-66
2022/06/16 07:38:13;;;;;;;7.30;3.08;;;;;;;28.40;43.46;96118.28;5088501;28;20024;-66
2022/06/16 07:40:39;;;;;;;8.50;3.45;;;;;;;28.47;42.85;96118.13;5090506;28;20168;-65
2022/06/16 07:43:05;;;;;;;8.05;3.47;;;;;;;28.65;40.93;96114.34;5093072;28;20122;-66
2022/06/16 07:45:33;;;;;;;4.85;2.83;;;;;;;28.99;40.94;96113.50;5092817;28;20118;-67
2022/06/16 07:48:00;;;;;;;6.93;2.90;;;;;;;29.40;40.09;96114.06;5092884;28;20196;-66
2022/06/16 07:50:26;;;;;;;13.75;3.60;;;;;;;29.19;41.35;96115.69;5089649;28;20023;-66
2022/06/16 07:52:51;;;;;;;6.60;2.88;;;;;;;29.29;38.37;96120.41;5091869;28;20028;-71
2022/06/16 07:55:18;;;;;;;8.25;3.35;;;;;;;29.35;39.53;96105.88;5077595;28;20101;-69
2022/06/16 07:57:49;;;;;;;5.75;2.75;;;;;;;29.30;38.11;96108.50;5085577;28;20017;-68
2022/06/16 08:00:21;;;;;;;4.40;3.00;;;;;;;29.45;39.25;96107.91;5084017;28;20430;-65
2022/06/16 08:02:47;;;;;;;6.15;2.85;;;;;;;29.62;38.69;96107.81;5073864;28;20043;-66
2022/06/16 08:05:13;;;;;;;5.90;3.55;;;;;;;29.59;39.95;96101.00;5077555;28;20374;-68
2022/06/16 08:07:41;;;;;;;8.20;3.28;;;;;;;29.85;39.37;96093.16;5089698;28;20111;-68
2022/06/16 08:10:09;;;;;;;10.02;3.20;;;;;;;30.19;37.08;96097.59;5092592;28;20106;-67
2022/06/16 08:12:37;;;;;;;10.25;3.15;;;;;;;30.45;36.13;96098.59;5092311;28;20036;-68
2022/06/16 08:15:03;;;;;;;6.97;2.95;;;;;;;30.27;36.80;96094.38;5074531;28;20043;-67
2022/06/16 08:17:31;;;;;;;8.00;3.05;;;;;;;30.59;34.21;96093.53;5092089;28;20032;-67
2022/06/16 08:19:57;;;;;;;9.57;3.45;;;;;;;30.58;34.80;96093.81;5092102;28;20024;-67
2022/06/16 08:22:23;;;;;;;6.75;2.72;;;;;;;30.53;36.34;96091.88;5092356;28;20534;-67
2022/06/16 08:24:49;;;;;;;11.30;3.70;;;;;;;30.64;36.71;96098.22;5092094;28;20414;-67
2022/06/16 08:27:16;;;;;;;7.90;3.15;;;;;;;30.92;34.38;96100.88;5092005;28;20177;-67
2022/06/16 08:29:44;;;;;;;9.85;3.25;;;;;;;30.98;34.02;96091.66;5092326;28;20028;-67
2022/06/16 08:32:13;;;;;;;5.30;2.60;;;;;;;30.92;34.92;96101.66;5091807;28;20063;-67
2022/06/16 08:34:39;;;;;;;5.25;2.67;;;;;;;31.27;34.66;96096.72;5091989;28;20035;-67
2022/06/16 08:37:05;;;;;;;8.18;3.00;;;;;;;31.01;34.05;96102.81;5091710;28;20024;-67
2022/06/16 08:39:31;;;;;;;7.53;2.90;;;;;;;31.10;34.83;96105.03;5091652;28;20032;-67
2022/06/16 08:42:28;;;;;;;6.57;2.83;;;;;;;31.30;34.65;96105.16;5091931;28;20059;-67
2022/06/16 08:44:53;;;;;;;7.07;2.97;;;;;;;31.41;33.79;96111.47;5092048;28;20027;-67
2022/06/16 08:47:57;;;;;;;5.43;2.93;;;;;;;31.79;34.08;96113.25;5090578;28;20028;-67
2022/06/16 08:51:02;;;;;;;6.68;2.95;;;;;;;31.52;35.51;96114.25;5088905;28;20028;-67
2022/06/16 08:53:48;;;;;;;6.57;3.45;;;;;;;31.68;36.62;96124.06;5079888;28;20035;-67
2022/06/16 08:56:40;;;;;;;13.35;3.92;;;;;;;31.83;34.67;96117.09;5073175;28;20032;-67
2022/06/16 08:59:25;;;;;;;8.20;3.63;;;;;;;31.62;35.89;96125.16;5091625;28;20043;-67
2022/06/16 09:02:03;;;;;;;9.10;3.67;;;;;;;31.51;36.62;96134.38;5087496;28;20035;-66
2022/06/16 09:04:41;;;;;;;11.05;3.42;;;;;;;31.57;33.92;96141.47;5083911;28;20032;-67
2022/06/16 09:07:25;;;;;;;13.20;4.00;;;;;;;31.56;34.78;96145.28;5079470;28;20029;-68
2022/06/16 09:10:16;;;;;;;10.27;3.10;;;;;;;31.89;34.71;96145.13;5083777;28;20099;-68
2022/06/16 09:13:06;;;;;;;6.78;3.20;;;;;;;32.14;34.71;96144.34;5085233;28;20028;-68
2022/06/16 09:16:07;;;;;;;9.23;2.92;;;;;;;32.08;34.87;96140.00;5090338;28;20040;-68
2022/06/16 09:18:49;;;;;;;5.88;2.97;;;;;;;32.27;34.80;96143.00;5055793;28;20103;-69
2022/06/16 09:21:33;;;;;;;9.15;3.20;;;;;;;32.74;35.05;96145.81;5079884;28;20028;-69
2022/06/16 09:24:35;;;;;;;5.30;3.00;;;;;;;32.86;34.44;96144.44;5074824;28;20526;-66
2022/06/16 09:27:09;;;;;;;10.10;3.20;;;;;;;33.05;34.58;96157.53;5090755;28;20729;-66
2022/06/16 09:29:53;;;;;;;13.98;3.22;;;;;;;32.93;33.51;96146.88;5086683;28;21674;-65
2022/06/16 09:32:40;;;;;;;11.35;3.35;;;;;;;33.18;32.39;96144.41;5077929;28;20028;-66
2022/06/16 09:35:21;;;;;;;8.05;3.08;;;;;;;33.30;32.41;96144.91;5070819;28;20406;-66
2022/06/16 09:38:17;;;;;;;6.45;2.88;;;;;;;33.35;31.62;96136.72;5080775;28;20028;-66
2022/06/16 09:40:54;;;;;;;8.73;3.20;;;;;;;33.40;32.70;96138.63;5077025;28;20610;-66
2022/06/16 09:43:32;;;;;;;10.73;3.38;;;;;;;34.08;31.36;96141.88;5074679;28;20028;-68
2022/06/16 09:46:05;;;;;;;9.73;3.20;;;;;;;33.98;30.96;96146.31;5088095;28;20421;-68
2022/06/16 09:48:52;;;;;;;8.27;3.40;;;;;;;33.90;31.20;96144.13;5089303;28;20564;-67
2022/06/16 09:51:39;;;;;;;8.95;3.40;;;;;;;33.49;31.96;96147.88;5067325;28;20025;-68
2022/06/16 09:54:16;;;;;;;7.82;2.88;;;;;;;33.65;33.44;96140.44;5078128;28;20027;-68
2022/06/16 09:56:45;;;;;;;5.45;2.80;;;;;;;34.06;30.54;96146.81;5089088;28;20142;-68
2022/06/16 09:59:12;;;;;;;12.95;3.90;;;;;;;34.29;30.87;96137.91;5088861;28;20031;-69
2022/06/16 10:01:47;;;;;;;9.80;3.08;;;;;;;34.53;30.90;96144.63;5088803;28;20110;-73
2022/06/16 10:04:13;;;;;;;5.10;2.53;;;;;;;34.60;31.48;96141.53;5089003;28;20028;-73
2022/06/16 10:06:57;;;;;;;6.75;3.15;;;;;;;34.29;30.38;96135.19;5072201;28;20035;-72
2022/06/16 10:09:32;;;;;;;7.13;2.67;;;;;;;33.74;30.86;96140.66;5075207;28;20158;-71
2022/06/16 10:12:19;;;;;;;7.63;2.65;;;;;;;33.75;31.34;96136.84;5071266;28;20025;-70
2022/06/16 10:15:14;;;;;;;9.13;2.85;;;;;;;33.62;29.96;96132.81;5087824;28;20042;-70
2022/06/16 10:17:42;;;;;;;6.90;2.65;;;;;;;34.08;29.78;96126.31;5088827;28;20103;-72
2022/06/16 10:20:10;;;;;;;8.55;3.53;;;;;;;34.10;29.78;96126.03;5088626;28;20039;-72
2022/06/16 10:22:39;;;;;;;6.15;2.70;;;;;;;33.77;29.53;96128.38;5069481;28;20070;-71
2022/06/16 10:25:13;;;;;;;8.18;2.72;;;;;;;33.55;30.71;96122.19;5082391;28;20409;-71
2022/06/16 10:28:40;;;;;;;9.82;3.03;;;;;;;33.43;30.51;96130.69;5082270;28;20020;-72
2022/06/16 10:31:07;;;;;;;5.57;2.70;;;;;;;33.18;31.13;96133.47;5006660;28;20040;-72
2022/06/16 10:33:51;;;;;;;8.07;2.70;;;;;;;33.67;29.93;96126.53;5006557;28;20079;-72
2022/06/16 10:36:20;;;;;;;13.43;3.17;;;;;;;34.04;30.16;96118.97;5052073;28;20047;-70
2022/06/16 10:39:08;;;;;;;13.02;3.10;;;;;;;34.31;28.80;96126.72;5089753;28;20542;-71
2022/06/16 10:41:40;;;;;;;7.35;2.72;;;;;;;34.55;28.64;96124.09;5058450;28;20119;-71
2022/06/16 10:44:12;;;;;;;9.27;2.85;;;;;;;34.92;29.29;96121.03;5089248;28;20024;-71
2022/06/16 10:46:47;;;;;;;3.83;2.63;;;;;;;35.10;28.62;96109.38;5067920;28;20372;-71
2022/06/16 10:49:19;;;;;;;8.20;2.80;;;;;;;35.60;27.13;96121.16;5082603;28;20016;-72
2022/06/16 10:51:57;;;;;;;9.80;2.92;;;;;;;35.72;27.33;96118.00;5082010;28;20086;-72
2022/06/16 10:54:32;;;;;;;6.70;3.38;;;;;;;35.61;27.07;96118.13;5066194;28;20085;-71
2022/06/16 10:57:04;;;;;;;8.27;3.08;;;;;;;35.48;26.96;96113.31;5084370;28;20036;-71
2022/06/16 10:59:34;;;;;;;6.10;2.80;;;;;;;36.06;26.25;96117.00;5089734;28;20426;-71
2022/06/16 11:02:14;;;;;;;10.70;2.75;;;;;;;36.12;25.97;96113.06;5089486;28;20086;-71
2022/06/16 11:04:41;;;;;;;5.40;2.90;;;;;;;36.00;26.21;96108.00;5089611;28;20054;-71
2022/06/16 11:07:11;;;;;;;10.55;3.00;;;;;;;35.91;26.54;96102.38;5089979;28;20028;-71
2022/06/16 11:09:37;;;;;;;3.80;2.50;;;;;;;36.12;25.93;96104.84;5090659;28;20107;-71
2022/06/16 11:12:13;;;;;;;6.78;2.85;;;;;;;36.18;25.89;96105.59;5093886;28;20443;-71
2022/06/16 11:14:52;;;;;;;4.63;2.58;;;;;;;36.20;25.78;96097.88;5093634;28;20107;-71
2022/06/16 11:17:36;;;;;;;5.32;3.00;;;;;;;36.10;26.20;96096.09;5092927;28;20142;-70
2022/06/16 11:20:16;;;;;;;6.03;3.13;;;;;;;36.90;25.59;96098.91;5082706;28;20088;-70
2022/06/16 11:22:45;;;;;;;7.60;2.97;;;;;;;36.52;25.04;96102.59;5093207;28;20074;-72
2022/06/16 11:25:33;;;;;;;9.02;3.00;;;;;;;36.55;25.81;96103.94;5093568;28;20027;-71
2022/06/16 11:28:13;;;;;;;11.75;3.35;;;;;;;36.46;25.39;96098.28;5093245;28;20099;-71
2022/06/16 11:30:45;;;;;;;5.90;2.97;;;;;;;36.35;26.23;96091.34;5093477;28;20051;-71
2022/06/16 11:36:49;;;;;;;12.43;3.08;;;;;;;36.09;25.74;96089.00;5093732;28;20039;-70
2022/06/16 11:39:39;;;;;;;5.70;2.70;;;;;;;36.46;26.38;96079.09;5086233;28;20024;-70
2022/06/16 11:42:22;;;;;;;12.15;3.17;;;;;;;36.45;25.89;96084.88;5093136;28;20017;-71
2022/06/16 11:45:08;;;;;;;9.63;3.05;;;;;;;36.54;25.83;96077.63;5093368;28;20020;-71
2022/06/16 11:47:41;;;;;;;9.25;2.95;;;;;;;36.74;25.26;96079.19;5093152;28;20020;-71
2022/06/16 11:50:17;;;;;;;6.60;2.97;;;;;;;37.03;24.99;96080.91;5092853;28;20046;-71
2022/06/16 11:53:02;;;;;;;9.75;3.03;;;;;;;36.74;25.37;96087.41;5093091;28;20024;-70
2022/06/16 11:55:30;;;;;;;13.63;3.05;;;;;;;36.87;25.84;96077.59;5092683;28;20076;-70
2022/06/16 11:58:25;;;;;;;11.02;2.97;;;;;;;36.65;25.84;96073.59;5093016;28;20028;-72
2022/06/16 12:00:58;;;;;;;9.10;3.10;;;;;;;36.95;24.38;96067.84;5074610;28;20027;-63
2022/06/16 12:03:52;;;;;;;18.40;3.58;;;;;;;37.56;22.55;96073.28;5093028;28;20032;-63
2022/06/16 12:06:50;;;;;;;13.15;3.75;;;;;;;36.99;24.12;96066.13;5092702;28;20024;-63
2022/06/16 12:09:41;;;;;;;13.00;3.38;;;;;;;36.32;24.69;96064.53;5092565;28;20020;-64
2022/06/16 12:12:19;;;;;;;11.57;3.63;;;;;;;36.98;25.39;96059.00;5092644;28;20042;-64
2022/06/16 12:15:09;;;;;;;6.45;3.20;;;;;;;36.97;23.72;96060.13;5079893;28;20116;-63
2022/06/16 12:17:42;;;;;;;8.15;3.35;;;;;;;36.73;24.36;96052.09;5091457;28;20032;-63
2022/06/16 12:20:22;;;;;;;12.97;3.77;;;;;;;36.70;23.82;96056.25;5092228;28;20028;-64